LRI4LW HECA-EGLL
Flight info
| Callsign | LRI4LW |
|---|---|
| Flight time | N/A |
| Altitude | 30000 |
| Route | CVO L617 NOZ L551 ANTAR DCT NEVRA DCT TALAS/N0497F320 DCT ENFAR DCT AKIKA DCT SOLGU DCT NAVSU DCT SABAD DCT KUBUD DCT GIKUS DCT SOTOV DCT XEBIX DCT USUDO DCT LUPEN DCT ETINO DCT ABNUR DCT DIMAL DCT ALESO |
| Aircraft | B77L/H-SDE1E2E3FGHIJ2J3J4J5M1RWXY/LB1D1 |
Departure
| Time | 2026-05-08 06:52 |
|---|---|
| Airport | Cairo International Airport (HECA) |
Arrival
| Time | N/A |
|---|---|
| Airport | London Heathrow Airport (EGLL) |
| Time | Latitude | Longitude | Altitude | Speed | Heading |
|---|---|---|---|---|---|
| 2026-05-08 06:36 | 30.11716 | 31.41057 | 379 ft | 0 kts | 251° |
| 2026-05-08 06:40 | 30.11722 | 31.41080 | 379 ft | 4 kts | 251° |
| 2026-05-08 06:41 | 30.11730 | 31.41107 | 379 ft | 3 kts | 252° |
| 2026-05-08 06:41 | 30.11739 | 31.41131 | 379 ft | 4 kts | 220° |
| 2026-05-08 06:41 | 30.11757 | 31.41141 | 379 ft | 4 kts | 175° |
| 2026-05-08 06:41 | 30.11782 | 31.41134 | 379 ft | 4 kts | 162° |
| 2026-05-08 06:42 | 30.11793 | 31.41130 | 379 ft | 1 kts | 162° |
| 2026-05-08 06:44 | 30.11773 | 31.41137 | 379 ft | 3 kts | 162° |
| 2026-05-08 06:44 | 30.11752 | 31.41145 | 379 ft | 4 kts | 162° |
| 2026-05-08 06:44 | 30.11709 | 31.41161 | 379 ft | 8 kts | 162° |
| 2026-05-08 06:44 | 30.11657 | 31.41179 | 379 ft | 9 kts | 162° |
| 2026-05-08 06:45 | 30.11573 | 31.41210 | 379 ft | 14 kts | 162° |
| 2026-05-08 06:45 | 30.11477 | 31.41245 | 379 ft | 14 kts | 162° |
| 2026-05-08 06:45 | 30.11398 | 31.41306 | 379 ft | 14 kts | 106° |
| 2026-05-08 06:45 | 30.11450 | 31.41399 | 379 ft | 14 kts | 46° |
| 2026-05-08 06:46 | 30.11517 | 31.41487 | 379 ft | 14 kts | 49° |
| 2026-05-08 06:46 | 30.11584 | 31.41574 | 379 ft | 14 kts | 49° |
| 2026-05-08 06:46 | 30.11650 | 31.41660 | 378 ft | 14 kts | 49° |
| 2026-05-08 06:46 | 30.11716 | 31.41748 | 379 ft | 14 kts | 49° |
| 2026-05-08 06:47 | 30.11783 | 31.41835 | 379 ft | 14 kts | 49° |
| 2026-05-08 06:47 | 30.11850 | 31.41923 | 379 ft | 14 kts | 50° |
| 2026-05-08 06:47 | 30.11915 | 31.42012 | 379 ft | 14 kts | 50° |
| 2026-05-08 06:47 | 30.11979 | 31.42102 | 379 ft | 14 kts | 51° |
| 2026-05-08 06:48 | 30.12043 | 31.42189 | 379 ft | 14 kts | 49° |
| 2026-05-08 06:48 | 30.12111 | 31.42276 | 379 ft | 14 kts | 49° |
| 2026-05-08 06:48 | 30.12176 | 31.42364 | 379 ft | 14 kts | 49° |
| 2026-05-08 06:48 | 30.12243 | 31.42452 | 378 ft | 14 kts | 49° |
| 2026-05-08 06:49 | 30.12309 | 31.42540 | 378 ft | 14 kts | 49° |
| 2026-05-08 06:49 | 30.12375 | 31.42628 | 378 ft | 14 kts | 49° |
| 2026-05-08 06:49 | 30.12441 | 31.42716 | 378 ft | 14 kts | 49° |
| 2026-05-08 06:49 | 30.12475 | 31.42821 | 378 ft | 13 kts | 90° |
| 2026-05-08 06:50 | 30.12459 | 31.42885 | 379 ft | 0 kts | 120° |
| 2026-05-08 06:50 | 30.12448 | 31.42900 | 379 ft | 8 kts | 132° |
| 2026-05-08 06:50 | 30.12362 | 31.42926 | 378 ft | 16 kts | 185° |
| 2026-05-08 06:50 | 30.12249 | 31.42859 | 377 ft | 28 kts | 226° |
| 2026-05-08 06:51 | 30.12013 | 31.42546 | 377 ft | 82 kts | 230° |
| 2026-05-08 06:51 | 30.11502 | 31.41862 | 378 ft | 140 kts | 229° |
| 2026-05-08 06:51 | 30.10773 | 31.40883 | 454 ft | 175 kts | 230° |
| 2026-05-08 06:51 | 30.09962 | 31.39828 | 842 ft | 181 kts | 230° |
| 2026-05-08 06:52 | 30.09110 | 31.38654 | 1072 ft | 200 kts | 231° |
| 2026-05-08 06:52 | 30.08208 | 31.37355 | 1378 ft | 212 kts | 236° |
| 2026-05-08 06:52 | 30.07559 | 31.35830 | 1777 ft | 215 kts | 256° |
| 2026-05-08 06:52 | 30.07411 | 31.34158 | 2352 ft | 205 kts | 279° |
| 2026-05-08 06:53 | 30.07755 | 31.32582 | 2744 ft | 201 kts | 303° |
| 2026-05-08 06:53 | 30.08497 | 31.31278 | 3333 ft | 193 kts | 320° |
| 2026-05-08 06:53 | 30.09490 | 31.30225 | 3614 ft | 201 kts | 326° |
| 2026-05-08 06:53 | 30.10633 | 31.29157 | 3794 ft | 220 kts | 327° |
| 2026-05-08 06:54 | 30.11886 | 31.27988 | 3999 ft | 241 kts | 326° |
| 2026-05-08 06:54 | 30.13220 | 31.26732 | 4410 ft | 253 kts | 326° |
| 2026-05-08 06:54 | 30.14600 | 31.25412 | 4956 ft | 261 kts | 324° |
| 2026-05-08 06:54 | 30.16004 | 31.24055 | 5566 ft | 265 kts | 324° |
| 2026-05-08 06:55 | 30.17422 | 31.22676 | 6252 ft | 267 kts | 323° |
| 2026-05-08 06:55 | 30.18851 | 31.21274 | 6891 ft | 271 kts | 323° |
| 2026-05-08 06:55 | 30.20288 | 31.19857 | 7536 ft | 272 kts | 323° |
| 2026-05-08 06:55 | 30.21727 | 31.18439 | 8165 ft | 272 kts | 322° |
| 2026-05-08 06:56 | 30.23152 | 31.17023 | 8776 ft | 274 kts | 322° |
| 2026-05-08 06:56 | 30.24602 | 31.15578 | 9515 ft | 275 kts | 322° |
| 2026-05-08 06:56 | 30.26062 | 31.14122 | 10247 ft | 278 kts | 322° |
| 2026-05-08 06:56 | 30.27564 | 31.12632 | 10685 ft | 293 kts | 321° |
| 2026-05-08 06:57 | 30.29172 | 31.11032 | 10843 ft | 316 kts | 321° |
| 2026-05-08 06:57 | 30.30902 | 31.09309 | 11019 ft | 339 kts | 321° |
| 2026-05-08 06:57 | 30.32744 | 31.07469 | 11282 ft | 358 kts | 321° |
| 2026-05-08 06:57 | 30.34655 | 31.05557 | 11821 ft | 367 kts | 320° |
| 2026-05-08 06:58 | 30.36606 | 31.03602 | 12457 ft | 373 kts | 320° |
| 2026-05-08 06:58 | 30.38579 | 31.01628 | 13193 ft | 377 kts | 320° |
| 2026-05-08 06:58 | 30.40570 | 30.99638 | 13940 ft | 380 kts | 319° |
| 2026-05-08 06:58 | 30.42578 | 30.97624 | 14601 ft | 383 kts | 319° |
| 2026-05-08 06:59 | 30.44595 | 30.95597 | 15326 ft | 384 kts | 319° |
| 2026-05-08 06:59 | 30.46620 | 30.93565 | 16058 ft | 386 kts | 319° |
| 2026-05-08 06:59 | 30.48626 | 30.91549 | 16742 ft | 388 kts | 319° |